Time;durP1;ratioP1;P1;durP2;ratioP2;P2;SDS_P1;SDS_P2;PMS_P1;PMS_P2;Temp;Humidity;BMP_temperature;BMP_pressure;BME280_temperature;BME280_humidity;BME280_pressure;Samples;Min_cycle;Max_cycle;Signal;HPM_P1;HPM_P2
2021/05/24 00:02:05;;;;;;;4.38;2.97;;;;;;;;;;5018722;28;20549;-57
2021/05/24 00:04:31;;;;;;;4.38;2.70;;;;;;;;;;5014923;28;20057;-54
2021/05/24 00:06:57;;;;;;;3.55;3.00;;;;;;;;;;5023635;28;20026;-51
2021/05/24 00:09:23;;;;;;;4.07;3.17;;;;;;;;;;5018915;28;20033;-55
2021/05/24 00:11:51;;;;;;;5.50;3.10;;;;;;;;;;5015865;28;20127;-53
2021/05/24 00:14:20;;;;;;;3.53;2.97;;;;;;;;;;5019326;28;20205;-52
2021/05/24 00:16:47;;;;;;;5.13;2.67;;;;;;;;;;5021159;28;20045;-52
2021/05/24 00:19:13;;;;;;;5.75;3.60;;;;;;;;;;5026798;28;20133;-52
2021/05/24 00:21:40;;;;;;;4.40;3.13;;;;;;;;;;5031692;28;20045;-51
2021/05/24 00:24:06;;;;;;;4.55;3.08;;;;;;;;;;5018055;28;20030;-54
2021/05/24 00:26:32;;;;;;;4.00;2.85;;;;;;;;;;5022130;28;20367;-51
2021/05/24 00:28:58;;;;;;;4.72;2.85;;;;;;;;;;5024054;28;20065;-51
2021/05/24 00:31:24;;;;;;;4.47;2.92;;;;;;;;;;5022921;28;20342;-52
2021/05/24 00:33:50;;;;;;;3.50;2.80;;;;;;;;;;5016797;28;20034;-51
2021/05/24 00:36:16;;;;;;;5.85;4.25;;;;;;;;;;5025045;28;20033;-51
2021/05/24 00:38:42;;;;;;;4.53;3.40;;;;;;;;;;5030713;28;20026;-51
2021/05/24 00:41:08;;;;;;;3.60;2.97;;;;;;;;;;5019043;28;20088;-56
2021/05/24 00:43:34;;;;;;;3.33;2.85;;;;;;;;;;5024090;28;20469;-50
2021/05/24 00:46:00;;;;;;;3.20;2.90;;;;;;;;;;5029993;28;20136;-51
2021/05/24 00:48:26;;;;;;;4.78;3.10;;;;;;;;;;5015002;28;20088;-52
2021/05/24 00:50:52;;;;;;;4.28;2.90;;;;;;;;;;5021970;28;20022;-56
2021/05/24 00:53:18;;;;;;;6.20;3.35;;;;;;;;;;5021291;28;20579;-51
2021/05/24 00:55:44;;;;;;;3.60;3.00;;;;;;;;;;5023234;28;20037;-51
2021/05/24 00:58:10;;;;;;;4.50;3.30;;;;;;;;;;5029927;28;20428;-51
2021/05/24 01:00:38;;;;;;;5.65;3.33;;;;;;;;;;5027758;28;20121;-52
2021/05/24 01:03:05;;;;;;;4.30;3.25;;;;;;;;;;5035134;28;20057;-52
2021/05/24 01:05:31;;;;;;;5.57;2.95;;;;;;;;;;5027455;28;20418;-54
2021/05/24 01:07:57;;;;;;;5.38;3.22;;;;;;;;;;5027090;28;20044;-54
2021/05/24 01:10:24;;;;;;;7.05;2.67;;;;;;;;;;5025237;28;20037;-52
2021/05/24 01:12:50;;;;;;;3.28;2.75;;;;;;;;;;5015381;28;20381;-55
2021/05/24 01:15:16;;;;;;;3.47;2.92;;;;;;;;;;5014533;28;20030;-55
2021/05/24 01:17:43;;;;;;;4.30;2.65;;;;;;;;;;5027350;28;20113;-51
2021/05/24 01:20:09;;;;;;;2.65;2.45;;;;;;;;;;5032457;28;20108;-51
2021/05/24 01:22:37;;;;;;;3.33;2.63;;;;;;;;;;5019725;28;20025;-56
2021/05/24 01:25:04;;;;;;;4.07;3.05;;;;;;;;;;5028786;28;20470;-51
2021/05/24 01:27:30;;;;;;;5.75;3.30;;;;;;;;;;5025475;28;20594;-52
2021/05/24 01:29:56;;;;;;;3.58;2.60;;;;;;;;;;5024069;28;20045;-55
2021/05/24 01:32:22;;;;;;;4.88;2.70;;;;;;;;;;5025712;28;20028;-52
2021/05/24 01:34:48;;;;;;;4.07;2.80;;;;;;;;;;5017228;28;20080;-51
2021/05/24 01:37:14;;;;;;;4.18;2.88;;;;;;;;;;5028581;28;20030;-50
2021/05/24 01:39:40;;;;;;;3.15;2.60;;;;;;;;;;5032186;28;20696;-52
2021/05/24 01:42:06;;;;;;;4.43;3.20;;;;;;;;;;5026330;28;20030;-51
2021/05/24 01:44:37;;;;;;;4.07;2.80;;;;;;;;;;5022602;28;20045;-50
2021/05/24 01:47:04;;;;;;;11.20;3.20;;;;;;;;;;5014835;28;20557;-51
2021/05/24 01:49:30;;;;;;;3.95;2.75;;;;;;;;;;5014258;28;20029;-55
2021/05/24 01:51:56;;;;;;;3.90;2.95;;;;;;;;;;5026911;28;20041;-54
2021/05/24 01:54:22;;;;;;;3.85;2.80;;;;;;;;;;5025732;28;20032;-54
2021/05/24 01:56:48;;;;;;;3.95;2.65;;;;;;;;;;5016289;28;20030;-53
2021/05/24 01:59:14;;;;;;;3.33;2.35;;;;;;;;;;5013757;28;20366;-55
2021/05/24 02:01:40;;;;;;;4.10;2.80;;;;;;;;;;5027621;28;20040;-51
2021/05/24 02:04:06;;;;;;;5.40;2.75;;;;;;;;;;5010293;28;20029;-51
2021/05/24 02:06:33;;;;;;;5.35;2.90;;;;;;;;;;5021203;28;20026;-51
2021/05/24 02:08:59;;;;;;;5.63;2.70;;;;;;;;;;5025917;28;20034;-51
2021/05/24 02:11:25;;;;;;;3.30;2.75;;;;;;;;;;5016552;28;20347;-51
2021/05/24 02:13:51;;;;;;;3.22;2.65;;;;;;;;;;5017691;28;20101;-51
2021/05/24 02:16:19;;;;;;;3.63;2.90;;;;;;;;;;5018580;28;20116;-51
2021/05/24 02:18:45;;;;;;;3.65;2.47;;;;;;;;;;5021925;28;20108;-51
2021/05/24 02:21:11;;;;;;;4.18;2.88;;;;;;;;;;5012921;28;20048;-52
2021/05/24 02:23:38;;;;;;;3.53;2.75;;;;;;;;;;5027628;28;20067;-53
2021/05/24 02:26:04;;;;;;;4.25;2.65;;;;;;;;;;5026724;28;20029;-54
2021/05/24 02:28:30;;;;;;;4.43;2.88;;;;;;;;;;5013048;28;20048;-54
2021/05/24 02:30:56;;;;;;;3.33;2.60;;;;;;;;;;5019059;28;20500;-52
2021/05/24 02:33:22;;;;;;;2.95;2.60;;;;;;;;;;5028277;28;20105;-52
2021/05/24 02:35:49;;;;;;;4.93;2.65;;;;;;;;;;5014593;28;20037;-52
2021/05/24 02:38:15;;;;;;;5.90;3.45;;;;;;;;;;5018774;28;20036;-51
2021/05/24 02:40:41;;;;;;;6.13;3.55;;;;;;;;;;5021631;28;20065;-51
2021/05/24 02:43:07;;;;;;;4.18;3.05;;;;;;;;;;5020371;28;20068;-52
2021/05/24 02:45:33;;;;;;;4.53;3.45;;;;;;;;;;5020923;28;20547;-52
2021/05/24 02:48:00;;;;;;;3.05;2.50;;;;;;;;;;5013138;28;20080;-51
2021/05/24 02:50:26;;;;;;;6.50;3.03;;;;;;;;;;5019745;28;20717;-52
2021/05/24 02:52:54;;;;;;;3.75;2.90;;;;;;;;;;5017633;28;20061;-52
2021/05/24 02:55:20;;;;;;;4.22;2.55;;;;;;;;;;5026194;28;20021;-52
2021/05/24 02:57:46;;;;;;;6.22;2.78;;;;;;;;;;5015205;28;20033;-50
2021/05/24 03:00:12;;;;;;;5.68;2.80;;;;;;;;;;5013934;28;20033;-54
2021/05/24 03:02:45;;;;;;;5.63;3.25;;;;;;;;;;5020870;28;20104;-53
2021/05/24 03:05:12;;;;;;;4.85;2.65;;;;;;;;;;5017100;28;20064;-53
2021/05/24 03:07:38;;;;;;;3.83;3.13;;;;;;;;;;5024567;28;20036;-53
2021/05/24 03:10:04;;;;;;;5.88;2.75;;;;;;;;;;5021312;28;20120;-53
2021/05/24 03:12:30;;;;;;;3.30;2.90;;;;;;;;;;5022844;28;20021;-53
2021/05/24 03:14:56;;;;;;;4.68;2.70;;;;;;;;;;5017045;28;20413;-51
2021/05/24 03:17:22;;;;;;;3.28;2.42;;;;;;;;;;5016088;28;20033;-52
2021/05/24 03:19:48;;;;;;;4.30;2.83;;;;;;;;;;5027790;28;20041;-54
2021/05/24 03:22:14;;;;;;;5.05;3.17;;;;;;;;;;5024233;28;20029;-52
2021/05/24 03:24:40;;;;;;;4.68;2.90;;;;;;;;;;5023800;28;20525;-51
2021/05/24 03:27:06;;;;;;;4.70;2.80;;;;;;;;;;5011776;28;20018;-51
2021/05/24 03:29:32;;;;;;;4.13;2.97;;;;;;;;;;5022369;28;20068;-52
2021/05/24 03:31:59;;;;;;;5.38;3.03;;;;;;;;;;5022056;28;20038;-52
2021/05/24 03:34:25;;;;;;;3.38;2.80;;;;;;;;;;5026426;28;20837;-51
2021/05/24 03:36:51;;;;;;;4.55;3.20;;;;;;;;;;5017029;28;20050;-52
2021/05/24 03:39:17;;;;;;;3.92;3.03;;;;;;;;;;5020383;28;20032;-54
2021/05/24 03:41:43;;;;;;;3.55;2.67;;;;;;;;;;5026030;28;20032;-53
2021/05/24 03:44:08;;;;;;;4.38;3.30;;;;;;;;;;5019616;28;20029;-55
2021/05/24 03:46:34;;;;;;;4.72;3.20;;;;;;;;;;5016864;28;20091;-55
2021/05/24 03:49:02;;;;;;;4.93;3.72;;;;;;;;;;5024112;28;20037;-51
2021/05/24 03:51:28;;;;;;;3.60;3.05;;;;;;;;;;5017552;28;20080;-52
2021/05/24 03:53:54;;;;;;;3.38;2.95;;;;;;;;;;5025117;28;20482;-53
2021/05/24 03:56:20;;;;;;;5.15;3.30;;;;;;;;;;5025817;28;20060;-51
2021/05/24 03:58:46;;;;;;;5.07;3.55;;;;;;;;;;5013813;28;20466;-52
2021/05/24 04:01:12;;;;;;;3.63;2.92;;;;;;;;;;5011951;28;20417;-51
2021/05/24 04:03:38;;;;;;;3.78;3.28;;;;;;;;;;5023923;28;20040;-50
2021/05/24 04:06:06;;;;;;;5.72;3.25;;;;;;;;;;5013465;28;20025;-51
2021/05/24 04:08:38;;;;;;;3.58;2.90;;;;;;;;;;5014784;28;20061;-51
2021/05/24 04:11:04;;;;;;;4.55;3.22;;;;;;;;;;5023097;28;20033;-51
2021/05/24 04:13:31;;;;;;;6.80;3.58;;;;;;;;;;5025179;28;20053;-51
2021/05/24 04:15:58;;;;;;;3.30;2.75;;;;;;;;;;5013557;28;20042;-53
2021/05/24 04:18:26;;;;;;;5.15;2.90;;;;;;;;;;5011894;28;20379;-55
2021/05/24 04:20:52;;;;;;;7.35;3.08;;;;;;;;;;5023274;28;20092;-52
2021/05/24 04:23:19;;;;;;;4.07;3.00;;;;;;;;;;5013509;28;20052;-51
2021/05/24 04:25:45;;;;;;;4.65;2.72;;;;;;;;;;5018988;28;20108;-54
2021/05/24 04:28:11;;;;;;;3.50;2.70;;;;;;;;;;5029926;28;20405;-52
2021/05/24 04:30:37;;;;;;;4.13;2.30;;;;;;;;;;5016076;28;20436;-52
2021/05/24 04:33:03;;;;;;;5.70;2.53;;;;;;;;;;5017230;28;20034;-53
2021/05/24 04:35:29;;;;;;;3.15;2.53;;;;;;;;;;5030488;28;20025;-51
2021/05/24 04:37:56;;;;;;;3.42;2.70;;;;;;;;;;5018887;28;20034;-51
2021/05/24 04:40:22;;;;;;;5.55;2.58;;;;;;;;;;5017816;28;20025;-51
2021/05/24 04:42:48;;;;;;;3.22;2.40;;;;;;;;;;5015844;28;20057;-52
2021/05/24 04:45:14;;;;;;;4.97;2.30;;;;;;;;;;5027603;28;20037;-51
2021/05/24 04:47:41;;;;;;;3.70;2.70;;;;;;;;;;5016689;28;20037;-50
2021/05/24 04:50:07;;;;;;;7.45;2.42;;;;;;;;;;5031879;28;20025;-51
2021/05/24 04:52:33;;;;;;;3.67;2.60;;;;;;;;;;5033520;28;20025;-54
2021/05/24 04:54:59;;;;;;;3.47;2.58;;;;;;;;;;5018807;28;20453;-57
2021/05/24 04:57:25;;;;;;;3.80;2.83;;;;;;;;;;5023639;28;20033;-53
2021/05/24 04:59:52;;;;;;;4.05;2.55;;;;;;;;;;5015499;28;20065;-53
2021/05/24 05:02:18;;;;;;;5.28;2.50;;;;;;;;;;5019796;28;20520;-53
2021/05/24 05:04:44;;;;;;;5.82;2.60;;;;;;;;;;5017397;28;20041;-52
2021/05/24 05:07:10;;;;;;;2.80;2.00;;;;;;;;;;5021719;28;20064;-50
2021/05/24 05:09:36;;;;;;;3.38;2.13;;;;;;;;;;5015717;28;20494;-55
2021/05/24 05:12:02;;;;;;;4.75;2.13;;;;;;;;;;5013607;28;20064;-52
2021/05/24 05:14:28;;;;;;;4.28;2.00;;;;;;;;;;5018503;28;20489;-53
2021/05/24 05:16:54;;;;;;;3.60;2.13;;;;;;;;;;5020951;28;20037;-50
2021/05/24 05:19:20;;;;;;;3.15;2.15;;;;;;;;;;5027525;28;20026;-51
2021/05/24 05:21:47;;;;;;;3.08;2.08;;;;;;;;;;5024011;28;20037;-52
2021/05/24 05:24:13;;;;;;;4.38;2.08;;;;;;;;;;5027691;28;20036;-52
2021/05/24 05:26:39;;;;;;;3.13;2.28;;;;;;;;;;5018561;28;20041;-50
2021/05/24 05:29:05;;;;;;;3.20;2.10;;;;;;;;;;5023003;28;20053;-54
2021/05/24 05:31:31;;;;;;;3.72;2.17;;;;;;;;;;5022499;28;20422;-55
2021/05/24 05:33:57;;;;;;;3.17;2.13;;;;;;;;;;5016094;28;20114;-55
2021/05/24 05:36:25;;;;;;;4.53;2.28;;;;;;;;;;5024613;28;20028;-53
2021/05/24 05:38:51;;;;;;;3.03;2.17;;;;;;;;;;5012545;28;20088;-53
2021/05/24 05:41:17;;;;;;;2.95;1.90;;;;;;;;;;5009185;28;20112;-54
2021/05/24 05:43:43;;;;;;;3.72;2.15;;;;;;;;;;5031484;28;20034;-53
2021/05/24 05:46:10;;;;;;;4.47;1.50;;;;;;;;;;5013813;28;20105;-52
2021/05/24 05:48:36;;;;;;;3.33;1.40;;;;;;;;;;5018720;28;20091;-52
2021/05/24 05:51:02;;;;;;;2.92;1.65;;;;;;;;;;5032374;28;20033;-51
2021/05/24 05:53:28;;;;;;;3.42;2.20;;;;;;;;;;5031798;28;20025;-51
2021/05/24 05:55:54;;;;;;;2.60;2.08;;;;;;;;;;5023895;28;20025;-50
2021/05/24 05:58:20;;;;;;;3.92;1.52;;;;;;;;;;5024721;28;20045;-51
2021/05/24 06:00:46;;;;;;;2.95;1.58;;;;;;;;;;5026650;28;20033;-54
2021/05/24 06:03:13;;;;;;;1.88;1.48;;;;;;;;;;5013851;28;20032;-53
2021/05/24 06:05:39;;;;;;;2.85;1.50;;;;;;;;;;5031119;28;20029;-56
2021/05/24 06:08:06;;;;;;;1.90;1.25;;;;;;;;;;5027730;28;20037;-50
2021/05/24 06:10:32;;;;;;;3.67;1.60;;;;;;;;;;5032224;28;20032;-55
2021/05/24 06:12:58;;;;;;;6.93;3.60;;;;;;;;;;5020485;28;20042;-55
2021/05/24 06:15:24;;;;;;;3.17;1.52;;;;;;;;;;5018878;28;20029;-55
2021/05/24 06:17:50;;;;;;;2.45;1.30;;;;;;;;;;5013524;28;20026;-53
2021/05/24 06:20:22;;;;;;;1.45;1.10;;;;;;;;;;5017623;28;20500;-51
2021/05/24 06:22:48;;;;;;;3.83;1.30;;;;;;;;;;5009990;28;20041;-52
2021/05/24 06:25:14;;;;;;;2.83;1.50;;;;;;;;;;5012692;28;20465;-52
2021/05/24 06:27:41;;;;;;;2.97;1.38;;;;;;;;;;5025546;28;20401;-51
2021/05/24 06:30:08;;;;;;;1.70;1.20;;;;;;;;;;5012285;28;20076;-52
2021/05/24 06:32:34;;;;;;;4.88;1.48;;;;;;;;;;5020153;28;20389;-52
2021/05/24 06:35:00;;;;;;;4.07;1.38;;;;;;;;;;5019004;28;20041;-52
2021/05/24 06:37:26;;;;;;;5.88;1.30;;;;;;;;;;5012020;28;20030;-53
2021/05/24 06:39:52;;;;;;;4.20;1.15;;;;;;;;;;5019137;28;20799;-53
2021/05/24 06:42:18;;;;;;;3.00;1.52;;;;;;;;;;5022281;28;20110;-54
2021/05/24 06:44:45;;;;;;;2.25;1.15;;;;;;;;;;5022509;28;20112;-52
2021/05/24 06:47:11;;;;;;;4.50;1.08;;;;;;;;;;5019769;28;20040;-53
2021/05/24 06:49:38;;;;;;;3.53;1.27;;;;;;;;;;5020700;28;20021;-51
2021/05/24 06:52:04;;;;;;;1.90;0.90;;;;;;;;;;5027458;28;20061;-54
2021/05/24 06:54:30;;;;;;;3.92;2.28;;;;;;;;;;5025847;28;20026;-51
2021/05/24 06:56:56;;;;;;;1.88;0.80;;;;;;;;;;5011845;28;20026;-50
2021/05/24 06:59:22;;;;;;;2.00;0.88;;;;;;;;;;5013114;28;20022;-51
2021/05/24 07:01:48;;;;;;;1.88;0.68;;;;;;;;;;5019536;28;20025;-51
2021/05/24 07:04:14;;;;;;;3.35;0.93;;;;;;;;;;5012782;28;20053;-51
2021/05/24 07:06:40;;;;;;;0.98;0.73;;;;;;;;;;5015716;28;20030;-52
2021/05/24 07:09:06;;;;;;;1.45;0.90;;;;;;;;;;5018723;28;20076;-53
2021/05/24 07:11:32;;;;;;;1.77;0.75;;;;;;;;;;5026081;28;20373;-51
2021/05/24 07:13:58;;;;;;;1.45;0.77;;;;;;;;;;5008824;28;20037;-55
2021/05/24 07:16:24;;;;;;;3.25;0.85;;;;;;;;;;5015383;28;20027;-54
2021/05/24 07:18:50;;;;;;;2.53;0.93;;;;;;;;;;5013613;28;20109;-52
2021/05/24 07:21:16;;;;;;;1.83;0.80;;;;;;;;;;5009045;28;20022;-52
2021/05/24 07:23:42;;;;;;;1.90;0.80;;;;;;;;;;5018947;28;20044;-54
2021/05/24 07:26:08;;;;;;;4.28;1.23;;;;;;;;;;5024472;28;20377;-51
2021/05/24 07:28:34;;;;;;;4.68;1.02;;;;;;;;;;5021425;28;20037;-52
2021/05/24 07:31:00;;;;;;;1.90;0.73;;;;;;;;;;5023749;28;20029;-53
2021/05/24 07:33:26;;;;;;;2.42;0.77;;;;;;;;;;5019683;28;20025;-53
2021/05/24 07:35:53;;;;;;;2.42;0.93;;;;;;;;;;5014784;28;20443;-53
2021/05/24 07:38:19;;;;;;;2.78;0.80;;;;;;;;;;5016379;28;20188;-52
2021/05/24 07:40:45;;;;;;;1.88;0.93;;;;;;;;;;5012423;28;20116;-53
2021/05/24 07:43:11;;;;;;;1.05;0.70;;;;;;;;;;5008529;28;20053;-52
2021/05/24 07:45:37;;;;;;;1.38;0.70;;;;;;;;;;5011590;28;20474;-51
2021/05/24 07:48:03;;;;;;;1.42;0.70;;;;;;;;;;5014166;28;20474;-53
2021/05/24 07:50:29;;;;;;;3.55;0.82;;;;;;;;;;5021585;28;20495;-56
2021/05/24 07:52:55;;;;;;;2.22;0.80;;;;;;;;;;5012735;28;20026;-54
2021/05/24 07:55:21;;;;;;;2.22;0.90;;;;;;;;;;5026851;28;20100;-51
2021/05/24 07:57:47;;;;;;;1.60;0.80;;;;;;;;;;5020792;28;20029;-56
2021/05/24 08:00:16;;;;;;;1.77;0.95;;;;;;;;;;5028521;28;20039;-54
2021/05/24 08:02:42;;;;;;;2.85;0.68;;;;;;;;;;5013510;28;20042;-52
2021/05/24 08:05:10;;;;;;;2.67;0.93;;;;;;;;;;5016471;28;20030;-51
2021/05/24 08:07:36;;;;;;;3.72;0.80;;;;;;;;;;5021062;28;20029;-52
2021/05/24 08:10:03;;;;;;;3.17;1.02;;;;;;;;;;5025210;28;20572;-52
2021/05/24 08:12:29;;;;;;;2.25;0.70;;;;;;;;;;5015557;28;20105;-52
2021/05/24 08:14:55;;;;;;;3.13;0.90;;;;;;;;;;5029101;28;20037;-52
2021/05/24 08:17:21;;;;;;;2.25;0.65;;;;;;;;;;5028905;28;20049;-51
2021/05/24 08:19:47;;;;;;;3.15;0.45;;;;;;;;;;5026925;28;20448;-52
2021/05/24 08:22:13;;;;;;;1.40;0.40;;;;;;;;;;5022419;28;20030;-51
2021/05/24 08:24:39;;;;;;;1.33;0.50;;;;;;;;;;5023366;28;20076;-51
2021/05/24 08:27:05;;;;;;;0.70;0.50;;;;;;;;;;5021464;28;20018;-50
2021/05/24 08:29:31;;;;;;;1.65;0.30;;;;;;;;;;5019466;28;20711;-52
2021/05/24 08:31:57;;;;;;;1.95;0.60;;;;;;;;;;5018720;28;20041;-52
2021/05/24 08:34:23;;;;;;;2.97;0.60;;;;;;;;;;5023333;28;20041;-51
2021/05/24 08:36:49;;;;;;;1.45;0.57;;;;;;;;;;5019288;28;20033;-53
2021/05/24 08:39:15;;;;;;;0.52;0.30;;;;;;;;;;5018398;28;20112;-51
2021/05/24 08:41:41;;;;;;;0.63;0.30;;;;;;;;;;5022307;28;20052;-53
2021/05/24 08:44:09;;;;;;;0.85;0.50;;;;;;;;;;5014401;28;20030;-55
2021/05/24 08:46:36;;;;;;;1.10;0.52;;;;;;;;;;5024385;28;20025;-54
2021/05/24 08:49:02;;;;;;;1.35;0.45;;;;;;;;;;5016102;28;20044;-53
2021/05/24 08:51:28;;;;;;;3.53;0.43;;;;;;;;;;5022303;28;20036;-54
2021/05/24 08:53:54;;;;;;;1.08;0.30;;;;;;;;;;5024645;28;20161;-56
2021/05/24 08:56:20;;;;;;;2.67;0.70;;;;;;;;;;5029110;28;20459;-52
2021/05/24 08:58:46;;;;;;;1.48;0.50;;;;;;;;;;5033697;28;20484;-55
2021/05/24 09:01:12;;;;;;;1.58;0.43;;;;;;;;;;5018760;28;20146;-56
2021/05/24 09:03:39;;;;;;;1.10;0.38;;;;;;;;;;5023598;28;20037;-51
2021/05/24 09:06:10;;;;;;;2.40;0.40;;;;;;;;;;5015518;28;20038;-51
2021/05/24 09:08:37;;;;;;;5.25;0.45;;;;;;;;;;5023268;28;20116;-52
2021/05/24 09:11:03;;;;;;;1.55;0.40;;;;;;;;;;5015735;28;20030;-54
2021/05/24 09:13:31;;;;;;;2.50;0.50;;;;;;;;;;5014158;28;20037;-51
2021/05/24 09:15:57;;;;;;;1.15;0.32;;;;;;;;;;5024022;28;20029;-53
2021/05/24 09:18:24;;;;;;;0.80;0.30;;;;;;;;;;5014669;28;20018;-51
2021/05/24 09:20:50;;;;;;;2.05;0.50;;;;;;;;;;5027452;28;20079;-52
2021/05/24 09:23:20;;;;;;;1.13;0.50;;;;;;;;;;5019694;28;20034;-53
2021/05/24 09:25:47;;;;;;;0.52;0.28;;;;;;;;;;5023490;28;20064;-53
2021/05/24 09:28:26;;;;;;;3.63;0.40;;;;;;;;;;5024930;28;20112;-52
2021/05/24 09:30:56;;;;;;;1.70;0.43;;;;;;;;;;5016567;28;20137;-51
2021/05/24 09:33:23;;;;;;;0.50;0.30;;;;;;;;;;5020322;28;20401;-50
2021/05/24 09:35:50;;;;;;;0.52;0.40;;;;;;;;;;5025355;28;20030;-50
2021/05/24 09:38:17;;;;;;;0.60;0.45;;;;;;;;;;5020110;28;20117;-54
2021/05/24 09:40:44;;;;;;;1.23;0.50;;;;;;;;;;5017532;28;20033;-51
2021/05/24 09:43:10;;;;;;;0.80;0.40;;;;;;;;;;5014815;28;20033;-51
2021/05/24 09:45:40;;;;;;;1.77;0.40;;;;;;;;;;5021676;28;20097;-50
2021/05/24 09:48:06;;;;;;;1.42;0.50;;;;;;;;;;5016072;28;20030;-51
2021/05/24 09:50:32;;;;;;;0.80;0.57;;;;;;;;;;5014115;28;20030;-51
2021/05/24 09:52:58;;;;;;;1.42;0.50;;;;;;;;;;5020044;28;20029;-51
2021/05/24 09:55:25;;;;;;;2.85;0.55;;;;;;;;;;5027888;28;20048;-50
2021/05/24 09:57:54;;;;;;;1.83;0.32;;;;;;;;;;5019697;28;20033;-50
2021/05/24 10:00:23;;;;;;;1.55;0.40;;;;;;;;;;5018948;28;20437;-51
2021/05/24 10:02:51;;;;;;;0.50;0.30;;;;;;;;;;5017979;28;20108;-55
2021/05/24 10:05:17;;;;;;;2.33;0.70;;;;;;;;;;5018284;28;20852;-52
2021/05/24 10:07:43;;;;;;;0.10;0.10;;;;;;;;;;5016536;28;20026;-54
2021/05/24 10:10:10;;;;;;;1.15;0.40;;;;;;;;;;5020617;28;20088;-55
2021/05/24 10:12:36;;;;;;;0.73;0.30;;;;;;;;;;5013601;28;20068;-52
2021/05/24 10:15:03;;;;;;;1.42;0.47;;;;;;;;;;5015644;28;20108;-54
2021/05/24 10:17:31;;;;;;;0.90;0.30;;;;;;;;;;5017299;28;20145;-52
2021/05/24 10:19:57;;;;;;;1.98;0.38;;;;;;;;;;5017897;28;20026;-52
2021/05/24 10:22:24;;;;;;;1.10;0.30;;;;;;;;;;5024212;28;20072;-51
2021/05/24 10:24:50;;;;;;;1.30;0.40;;;;;;;;;;5018464;28;20128;-56
2021/05/24 10:27:16;;;;;;;2.90;0.43;;;;;;;;;;5016533;28;21577;-51
2021/05/24 10:29:42;;;;;;;0.95;0.40;;;;;;;;;;5020470;28;20714;-52
2021/05/24 10:32:09;;;;;;;4.10;0.30;;;;;;;;;;5011744;28;20048;-51
2021/05/24 10:34:40;;;;;;;2.15;0.30;;;;;;;;;;5014107;28;20113;-50
2021/05/24 10:37:17;;;;;;;1.75;0.40;;;;;;;;;;5025612;28;20025;-51
2021/05/24 10:39:44;;;;;;;0.43;0.40;;;;;;;;;;5027617;28;20021;-51
2021/05/24 10:42:13;;;;;;;2.63;0.47;;;;;;;;;;5031538;28;20029;-51
2021/05/24 10:44:44;;;;;;;1.67;0.40;;;;;;;;;;5016483;28;20034;-52
2021/05/24 10:47:17;;;;;;;0.45;0.22;;;;;;;;;;5021423;28;20377;-51
2021/05/24 10:50:06;;;;;;;1.95;0.30;;;;;;;;;;5016899;28;20037;-51
2021/05/24 10:52:36;;;;;;;0.80;0.22;;;;;;;;;;5028243;28;20116;-50
2021/05/24 10:55:22;;;;;;;0.57;0.30;;;;;;;;;;5020357;28;20370;-50
2021/05/24 10:58:02;;;;;;;1.45;0.30;;;;;;;;;;5031472;28;20029;-51
2021/05/24 11:00:31;;;;;;;1.27;0.30;;;;;;;;;;5031013;28;20084;-50
2021/05/24 11:02:57;;;;;;;0.95;0.20;;;;;;;;;;5025881;28;20082;-50
2021/05/24 11:05:26;;;;;;;0.95;0.25;;;;;;;;;;5017616;28;20105;-51
2021/05/24 11:07:54;;;;;;;0.75;0.30;;;;;;;;;;5015418;28;20426;-51
2021/05/24 11:10:21;;;;;;;0.50;0.30;;;;;;;;;;5017194;28;20084;-52
2021/05/24 11:12:49;;;;;;;1.63;0.30;;;;;;;;;;5011002;28;20030;-51
2021/05/24 11:15:16;;;;;;;5.65;0.28;;;;;;;;;;5021895;28;20025;-52
2021/05/24 11:18:02;;;;;;;1.25;0.40;;;;;;;;;;5029553;28;20075;-52
2021/05/24 11:20:28;;;;;;;1.58;0.57;;;;;;;;;;5009754;28;20112;-50
2021/05/24 11:23:09;;;;;;;0.80;0.30;;;;;;;;;;5022525;28;20047;-51
2021/05/24 11:28:58;;;;;;;2.20;0.20;;;;;;;;;;5019224;28;20057;-51
2021/05/24 11:31:36;;;;;;;2.63;0.43;;;;;;;;;;5017883;28;20057;-53
2021/05/24 11:34:07;;;;;;;1.27;0.30;;;;;;;;;;5005774;28;20033;-52
2021/05/24 11:36:36;;;;;;;1.05;0.35;;;;;;;;;;5030469;28;20032;-51
2021/05/24 11:39:12;;;;;;;2.03;0.35;;;;;;;;;;5019947;28;20517;-54
2021/05/24 11:41:45;;;;;;;0.75;0.40;;;;;;;;;;5027354;28;20032;-53
2021/05/24 11:44:11;;;;;;;1.60;0.32;;;;;;;;;;5011528;28;20057;-52
2021/05/24 11:46:46;;;;;;;1.08;0.38;;;;;;;;;;5024443;28;20478;-51
2021/05/24 11:49:13;;;;;;;1.98;0.20;;;;;;;;;;5022077;28;20358;-50
2021/05/24 11:51:39;;;;;;;1.02;0.22;;;;;;;;;;5030242;28;20064;-52
2021/05/24 11:54:07;;;;;;;0.35;0.30;;;;;;;;;;5020112;28;20093;-52
2021/05/24 11:56:46;;;;;;;1.15;0.40;;;;;;;;;;5022297;28;20403;-51
2021/05/24 11:59:13;;;;;;;1.85;0.40;;;;;;;;;;5021591;28;20113;-51
2021/05/24 12:01:40;;;;;;;0.82;0.20;;;;;;;;;;5012750;28;20061;-53
2021/05/24 12:04:07;;;;;;;1.48;0.32;;;;;;;;;;5016131;28;20060;-56
2021/05/24 12:06:40;;;;;;;1.45;0.50;;;;;;;;;;5011572;28;20018;-57
2021/05/24 12:09:06;;;;;;;1.42;0.40;;;;;;;;;;5011891;28;20046;-53
2021/05/24 12:11:33;;;;;;;0.65;0.35;;;;;;;;;;5013098;28;20061;-53
2021/05/24 12:14:00;;;;;;;1.50;0.30;;;;;;;;;;5015888;28;20393;-54
2021/05/24 12:16:26;;;;;;;1.35;0.30;;;;;;;;;;5017411;28;20084;-51
2021/05/24 12:18:53;;;;;;;3.50;0.32;;;;;;;;;;5026803;28;20374;-54
2021/05/24 12:21:36;;;;;;;1.30;0.47;;;;;;;;;;5028109;28;20029;-53
2021/05/24 12:24:03;;;;;;;1.33;0.30;;;;;;;;;;5010443;28;20030;-54
2021/05/24 12:26:29;;;;;;;0.95;0.25;;;;;;;;;;5018321;28;20099;-53
2021/05/24 12:28:56;;;;;;;1.65;0.30;;;;;;;;;;5020889;28;20457;-54
2021/05/24 12:31:23;;;;;;;0.80;0.32;;;;;;;;;;5021266;28;20121;-52
2021/05/24 12:33:49;;;;;;;1.00;0.38;;;;;;;;;;5020695;28;20033;-52
2021/05/24 12:36:23;;;;;;;2.08;0.85;;;;;;;;;;5020416;28;20033;-56
2021/05/24 12:41:18;;;;;;;0.47;0.28;;;;;;;;;;5017261;28;20038;-54
2021/05/24 12:43:48;;;;;;;1.67;0.55;;;;;;;;;;5018379;28;20544;-55
2021/05/24 12:46:14;;;;;;;3.10;0.40;;;;;;;;;;5020548;28;20026;-54
2021/05/24 12:48:41;;;;;;;0.55;0.30;;;;;;;;;;5021120;28;20049;-51
2021/05/24 12:51:18;;;;;;;1.83;0.40;;;;;;;;;;5020471;28;20022;-53
2021/05/24 12:53:54;;;;;;;1.83;0.30;;;;;;;;;;5018436;28;20065;-53
2021/05/24 12:56:20;;;;;;;2.47;0.40;;;;;;;;;;5023692;28;20091;-51
2021/05/24 12:58:46;;;;;;;4.38;0.38;;;;;;;;;;5023182;28;20386;-51
2021/05/24 13:01:12;;;;;;;0.60;0.20;;;;;;;;;;5023913;28;20029;-53
2021/05/24 13:03:42;;;;;;;1.83;0.22;;;;;;;;;;5023102;28;20087;-51
2021/05/24 13:06:10;;;;;;;0.82;0.30;;;;;;;;;;5022804;28;20022;-51
2021/05/24 13:08:46;;;;;;;1.52;0.40;;;;;;;;;;5017807;28;20062;-52
2021/05/24 13:11:12;;;;;;;0.80;0.22;;;;;;;;;;5017955;28;20053;-49
2021/05/24 13:13:38;;;;;;;0.70;0.30;;;;;;;;;;5021722;28;20025;-51
2021/05/24 13:16:38;;;;;;;0.65;0.20;;;;;;;;;;5021250;28;20026;-51
2021/05/24 13:19:23;;;;;;;0.73;0.20;;;;;;;;;;5021989;28;20034;-50
2021/05/24 13:22:23;;;;;;;0.40;0.20;;;;;;;;;;5011301;28;20072;-49
2021/05/24 13:25:19;;;;;;;0.60;0.10;;;;;;;;;;5017924;28;20413;-48
2021/05/24 13:28:03;;;;;;;0.73;0.50;;;;;;;;;;5013701;28;20056;-50
2021/05/24 13:30:32;;;;;;;1.52;0.20;;;;;;;;;;5015580;28;20042;-48
2021/05/24 13:32:58;;;;;;;0.77;0.30;;;;;;;;;;5018129;28;20500;-48
2021/05/24 13:35:25;;;;;;;0.63;0.15;;;;;;;;;;5020745;28;20543;-49
2021/05/24 13:37:51;;;;;;;1.80;0.30;;;;;;;;;;5027456;28;20033;-48
2021/05/24 13:40:18;;;;;;;0.40;0.10;;;;;;;;;;5034097;28;20022;-49
2021/05/24 13:42:46;;;;;;;0.60;0.22;;;;;;;;;;5033665;28;20504;-48
2021/05/24 13:45:12;;;;;;;0.30;0.10;;;;;;;;;;5026805;28;20037;-50
2021/05/24 13:47:38;;;;;;;0.57;0.20;;;;;;;;;;5023844;28;20014;-52
2021/05/24 13:50:05;;;;;;;1.60;0.20;;;;;;;;;;5015943;28;20034;-51
2021/05/24 13:52:31;;;;;;;1.38;0.30;;;;;;;;;;5022397;28;20829;-50
2021/05/24 13:54:57;;;;;;;0.17;0.10;;;;;;;;;;5025268;28;20045;-50
2021/05/24 13:57:23;;;;;;;0.40;0.25;;;;;;;;;;5026767;28;20084;-48
2021/05/24 13:59:49;;;;;;;1.63;0.22;;;;;;;;;;5020963;28;20037;-48
2021/05/24 14:02:16;;;;;;;1.27;0.20;;;;;;;;;;5033570;28;20033;-48
2021/05/24 14:04:42;;;;;;;0.40;0.10;;;;;;;;;;5021608;28;20108;-48
2021/05/24 14:07:08;;;;;;;0.63;0.25;;;;;;;;;;5028398;28;20097;-48
2021/05/24 14:09:35;;;;;;;0.60;0.20;;;;;;;;;;5030016;28;20249;-48
2021/05/24 14:12:01;;;;;;;0.73;0.32;;;;;;;;;;5021594;28;20026;-50
2021/05/24 14:14:27;;;;;;;2.67;0.30;;;;;;;;;;5023640;28;20026;-49
2021/05/24 14:16:53;;;;;;;0.22;0.10;;;;;;;;;;5025017;28;20047;-49
2021/05/24 14:19:19;;;;;;;0.50;0.20;;;;;;;;;;5024041;28;20030;-50
2021/05/24 14:21:45;;;;;;;0.25;0.10;;;;;;;;;;5020376;28;20029;-48
2021/05/24 14:24:11;;;;;;;0.80;0.22;;;;;;;;;;5013118;28;20080;-49
2021/05/24 14:26:37;;;;;;;2.40;0.20;;;;;;;;;;5012661;28;20492;-51
2021/05/24 14:29:03;;;;;;;0.32;0.20;;;;;;;;;;5024464;28;20128;-48
2021/05/24 14:31:31;;;;;;;0.38;0.10;;;;;;;;;;5017911;28;20053;-48
2021/05/24 14:33:57;;;;;;;0.60;0.22;;;;;;;;;;5017331;28;20109;-49
2021/05/24 14:36:23;;;;;;;2.25;0.20;;;;;;;;;;5020961;28;20041;-48
2021/05/24 14:38:50;;;;;;;1.15;0.32;;;;;;;;;;5021667;28;20060;-49
2021/05/24 14:41:16;;;;;;;1.50;0.30;;;;;;;;;;5016098;28;20032;-49
2021/05/24 14:43:42;;;;;;;0.45;0.22;;;;;;;;;;5015469;28;20116;-49
2021/05/24 14:46:08;;;;;;;0.45;0.30;;;;;;;;;;5024569;28;20021;-52
2021/05/24 14:48:35;;;;;;;2.25;0.45;;;;;;;;;;5023152;28;20030;-50
2021/05/24 14:51:01;;;;;;;0.60;0.38;;;;;;;;;;5030382;28;20576;-48